Location Glendale, AZ, US

ob KWR6634 252230Z AUTO 24003G10KT FEW200 39/21 A2972 RMK SLPNO 

2019.08.25 2230 UTC
Wind from the WSW (244 degrees) at 4.0 MPH (3 KT) gusting to 12.0 MPH (10 KT)
Visibility    Mile(s)
Sky Conditions  partly cloudy
Temperature 101.50 F (39 C)
Dew Point 70.39 F (21 C)
Relative Humidity 37%
Pressure   29.72 in. Hg (1006 hPa)
Rain  0.00 in.
Daily Rain  in.

Station Name  My Glendale Arizona Weather Station
Longitude, Latitude  -112.20133199999998, 33.58645
Elevation 1180
Station URL www.myglendalewxs.com
Software Type VWS V15.00